Terminal Aerodrome Forecast
Issued by NWS Jacksonville, FL

Home | Current Version | Previous Version | Text Only | Print | Product List | Glossary On
Versions: 1 2 3 4 5 6 7 8 9 10 11 12 13 14
032
FTUS42 KJAX 300657 AAA
TAFGNV
TAF AMD
KGNV 300657Z 3007/0106 13010KT P6SM SCT010 BKN015 WS010/17033KT
     FM301500 14013G23KT P6SM SCT030 BKN060=

USA.gov is the U.S. government's official web portal to all federal, state and local government web resources and services.